createdAt,value
2017-10-10T00:00:57.462Z,1.86
2017-10-10T00:02:07.460Z,1.86
2017-10-10T00:03:17.796Z,1.85
2017-10-10T00:04:28.124Z,1.93
2017-10-10T00:05:37.789Z,1.84
2017-10-10T00:06:47.454Z,1.86
2017-10-10T00:07:57.456Z,1.82
2017-10-10T00:09:07.780Z,1.81
2017-10-10T00:10:18.120Z,1.76
2017-10-10T00:11:30.427Z,1.75
2017-10-10T00:12:40.096Z,1.78
2017-10-10T00:13:50.433Z,1.76
2017-10-10T00:15:00.781Z,1.75
2017-10-10T00:16:10.809Z,1.66
2017-10-10T00:17:21.143Z,1.7
2017-10-10T00:18:31.140Z,1.7
2017-10-10T00:19:41.468Z,1.68
2017-10-10T00:20:51.460Z,1.71
2017-10-10T00:22:01.791Z,1.7
2017-10-10T00:23:11.119Z,1.76
2017-10-10T00:24:21.445Z,1.66
2017-10-10T00:25:30.769Z,1.58
2017-10-10T00:26:40.769Z,1.64
2017-10-10T00:27:50.763Z,1.61
2017-10-10T00:29:04.095Z,1.49
2017-10-10T00:30:14.428Z,1.49
2017-10-10T00:31:24.428Z,1.43
2017-10-10T00:32:34.437Z,1.39
2017-10-10T00:33:44.097Z,1.32
2017-10-10T00:34:54.459Z,1.21
2017-10-10T00:36:03.796Z,1.25
2017-10-10T00:37:13.794Z,1.1
2017-10-10T00:38:23.451Z,1.16
2017-10-10T00:39:33.463Z,1.16
2017-10-10T00:40:43.466Z,1.1
2017-10-10T00:41:53.145Z,1.12
2017-10-10T00:43:03.480Z,1.09
2017-10-10T00:44:13.482Z,1.07
2017-10-10T00:45:23.808Z,1.06
2017-10-10T00:46:33.468Z,1.03
2017-10-10T00:47:43.800Z,1
2017-10-10T00:48:53.796Z,1.12
2017-10-10T00:50:03.806Z,1.03
2017-10-10T00:51:13.799Z,0.96
2017-10-10T00:52:23.794Z,0.95
2017-10-10T00:53:33.794Z,0.92
2017-10-10T00:54:44.121Z,0.95
2017-10-10T00:55:54.460Z,0.92
2017-10-10T00:57:04.788Z,0.92
2017-10-10T00:58:14.791Z,1.02
2017-10-10T00:59:25.134Z,0.94
2017-10-10T01:00:35.474Z,1.03
2017-10-10T01:01:45.511Z,1.02
2017-10-10T01:02:55.847Z,1.04
2017-10-10T01:04:05.849Z,1.04
2017-10-10T01:05:15.508Z,1.03
2017-10-10T01:06:25.502Z,0.94
2017-10-10T01:07:35.532Z,1
2017-10-10T01:08:45.872Z,0.95
2017-10-10T01:09:55.531Z,0.88
2017-10-10T01:11:05.194Z,0.95
2017-10-10T01:12:15.528Z,0.96
2017-10-10T01:13:25.864Z,0.88
2017-10-10T01:14:35.872Z,0.99
2017-10-10T01:15:45.532Z,0.95
2017-10-10T01:16:55.869Z,0.89
2017-10-10T01:18:06.224Z,0.95
2017-10-10T01:19:16.547Z,0.89
2017-10-10T01:20:26.880Z,0.86
2017-10-10T01:21:36.877Z,0.86
2017-10-10T01:22:46.869Z,0.91
2017-10-10T01:23:56.872Z,0.81
2017-10-10T01:25:07.198Z,0.89
2017-10-10T01:26:17.574Z,0.85
2017-10-10T01:27:27.569Z,0.85
2017-10-10T01:28:37.906Z,0.88
2017-10-10T01:29:47.583Z,0.89
2017-10-10T01:30:57.929Z,0.91
2017-10-10T01:32:07.929Z,0.89
2017-10-10T01:33:18.263Z,0.81
2017-10-10T01:34:28.598Z,0.86
2017-10-10T01:35:38.601Z,0.82
2017-10-10T01:36:48.600Z,0.84
2017-10-10T01:37:58.267Z,0.74
2017-10-10T01:39:08.599Z,0.81
2017-10-10T01:40:18.608Z,0.76
2017-10-10T01:41:27.929Z,0.73
2017-10-10T01:42:37.590Z,0.81
2017-10-10T01:43:47.589Z,0.61
2017-10-10T01:44:57.922Z,0.7
2017-10-10T01:46:08.270Z,0.71
2017-10-10T01:47:18.263Z,0.7
2017-10-10T01:48:27.920Z,0.74
2017-10-10T01:49:38.252Z,0.78
2017-10-10T01:50:48.244Z,0.78
2017-10-10T01:51:58.244Z,0.78
2017-10-10T01:53:08.590Z,0.82
2017-10-10T01:54:18.584Z,0.84
2017-10-10T01:55:28.909Z,0.76
2017-10-10T01:56:39.240Z,0.82
2017-10-10T01:57:49.238Z,0.73
2017-10-10T01:58:59.237Z,0.82
2017-10-10T02:00:09.237Z,0.81
2017-10-10T02:01:19.229Z,0.84
2017-10-10T02:02:28.896Z,0.78
2017-10-10T02:03:38.885Z,0.84
2017-10-10T02:04:48.873Z,0.77
2017-10-10T02:05:58.865Z,0.88
2017-10-10T02:07:08.548Z,0.85
2017-10-10T02:08:19.029Z,0.86
2017-10-10T02:09:28.695Z,0.88
2017-10-10T02:10:39.055Z,0.82
2017-10-10T02:11:49.053Z,0.94
2017-10-10T02:12:59.053Z,0.92
2017-10-10T02:14:09.046Z,0.85
2017-10-10T02:15:18.713Z,0.88
2017-10-10T02:16:28.715Z,0.86
2017-10-10T02:17:39.049Z,0.81
2017-10-10T02:18:49.397Z,0.81
2017-10-10T02:19:59.737Z,0.81
2017-10-10T02:21:10.070Z,0.74
2017-10-10T02:22:20.398Z,0.76
2017-10-10T02:23:30.721Z,0.74
2017-10-10T02:24:41.048Z,0.71
2017-10-10T02:25:51.154Z,0.77
2017-10-10T02:27:01.151Z,0.73
2017-10-10T02:28:11.483Z,0.73
2017-10-10T02:29:21.816Z,0.77
2017-10-10T02:30:31.815Z,0.76
2017-10-10T02:31:42.146Z,0.68
2017-10-10T02:32:52.151Z,0.71
2017-10-10T02:34:02.493Z,0.77
2017-10-10T02:35:12.841Z,0.84
2017-10-10T02:36:23.180Z,0.88
2017-10-10T02:37:33.168Z,0.81
2017-10-10T02:38:43.165Z,0.86
2017-10-10T02:39:53.162Z,0.92
2017-10-10T02:41:03.157Z,0.96
2017-10-10T02:42:13.489Z,1
2017-10-10T02:43:23.817Z,1.04
2017-10-10T02:44:34.157Z,1.07
2017-10-10T02:45:44.492Z,1.18
2017-10-10T02:46:54.829Z,1.09
2017-10-10T02:48:05.158Z,1.13
2017-10-10T02:49:15.500Z,1.21
2017-10-10T02:50:25.852Z,1.14
2017-10-10T02:51:36.188Z,1.18
2017-10-10T02:52:46.521Z,1.27
2017-10-10T02:53:56.522Z,1.31
2017-10-10T02:55:06.872Z,1.32
2017-10-10T02:56:16.877Z,1.38
2017-10-10T02:57:26.878Z,1.4
2017-10-10T02:58:36.539Z,1.42
2017-10-10T02:59:46.900Z,1.52
2017-10-10T03:00:57.245Z,1.56
2017-10-10T03:02:06.905Z,1.56
2017-10-10T03:03:17.237Z,1.58
2017-10-10T03:04:27.231Z,1.7
2017-10-10T03:05:37.231Z,1.61
2017-10-10T03:06:47.558Z,1.67
2017-10-10T03:07:57.901Z,1.74
2017-10-10T03:09:08.232Z,1.7
2017-10-10T03:10:18.227Z,1.71
2017-10-10T03:11:28.222Z,1.71
2017-10-10T03:12:38.574Z,1.74
2017-10-10T03:13:48.898Z,1.74
2017-10-10T03:14:58.897Z,1.79
2017-10-10T03:16:08.903Z,1.81
2017-10-10T03:17:18.896Z,1.82
2017-10-10T03:18:28.582Z,1.84
2017-10-10T03:19:38.282Z,1.89
2017-10-10T03:20:48.614Z,1.93
2017-10-10T03:21:58.951Z,1.85
2017-10-10T03:23:09.288Z,1.86
2017-10-10T03:24:19.618Z,1.85
2017-10-10T03:25:29.948Z,1.86
2017-10-10T03:26:39.949Z,1.92
2017-10-10T03:27:49.605Z,1.89
2017-10-10T03:28:59.600Z,1.89
2017-10-10T03:30:09.602Z,1.86
2017-10-10T03:31:19.603Z,1.97
2017-10-10T03:32:29.599Z,2.01
2017-10-10T03:33:39.627Z,2.01
2017-10-10T03:34:49.627Z,2.12
2017-10-10T03:35:59.298Z,2.05
2017-10-10T03:37:09.327Z,2.03
2017-10-10T03:38:19.320Z,2.08
2017-10-10T03:39:29.654Z,1.98
2017-10-10T03:40:39.983Z,2.05
2017-10-10T03:41:49.984Z,2.15
2017-10-10T03:43:00.317Z,2.01
2017-10-10T03:44:10.659Z,2.1
2017-10-10T03:45:20.321Z,2.14
2017-10-10T03:46:30.657Z,2.01
2017-10-10T03:47:40.648Z,1.97
2017-10-10T03:48:50.980Z,2.14
2017-10-10T03:50:00.977Z,2.12
2017-10-10T03:51:10.975Z,2.12
2017-10-10T03:52:20.971Z,2.04
2017-10-10T03:53:31.306Z,2.12
2017-10-10T03:54:41.649Z,2.07
2017-10-10T03:55:51.992Z,2.05
2017-10-10T03:57:02.322Z,1.98
2017-10-10T03:58:12.652Z,2.01
2017-10-10T03:59:22.640Z,2.14
2017-10-10T04:00:32.303Z,2.14
2017-10-10T04:01:41.964Z,2.15
2017-10-10T04:02:52.318Z,2.1
2017-10-10T04:04:02.651Z,2.14
2017-10-10T04:05:12.984Z,2.08
2017-10-10T04:06:23.316Z,2.18
2017-10-10T04:07:33.651Z,2.14
2017-10-10T04:08:43.995Z,2.25
2017-10-10T04:09:53.997Z,2.21
2017-10-10T04:11:03.655Z,2.22
2017-10-10T04:12:13.317Z,2.34
2017-10-10T04:13:23.645Z,2.23
2017-10-10T04:14:33.652Z,2.36
2017-10-10T04:15:43.990Z,2.43
2017-10-10T04:16:53.980Z,2.43
2017-10-10T04:18:04.319Z,2.47
2017-10-10T04:19:14.671Z,2.51
2017-10-10T04:20:24.663Z,2.5
2017-10-10T04:21:34.660Z,2.55
2017-10-10T04:22:44.657Z,2.58
2017-10-10T04:23:54.993Z,2.61
2017-10-10T04:25:05.328Z,2.64
2017-10-10T04:26:15.658Z,2.64
2017-10-10T04:27:25.665Z,2.65
2017-10-10T04:28:35.658Z,2.62
2017-10-10T04:29:46.006Z,2.64
2017-10-10T04:30:56.352Z,2.72
2017-10-10T04:32:05.681Z,2.73
2017-10-10T04:33:15.681Z,2.73
2017-10-10T04:34:25.679Z,2.76
2017-10-10T04:35:36.027Z,2.72
2017-10-10T04:36:46.381Z,2.64
2017-10-10T04:37:56.372Z,2.72
2017-10-10T04:39:06.371Z,2.58
2017-10-10T04:40:16.698Z,2.55
2017-10-10T04:41:26.704Z,2.62
2017-10-10T04:42:36.035Z,2.59
2017-10-10T04:43:46.368Z,2.59
2017-10-10T04:44:56.695Z,2.7
2017-10-10T04:46:07.033Z,2.59
2017-10-10T04:47:17.367Z,2.62
2017-10-10T04:48:27.392Z,2.62
2017-10-10T04:49:37.407Z,2.65
2017-10-10T04:50:47.073Z,2.68
2017-10-10T04:51:57.070Z,2.68
2017-10-10T04:53:07.074Z,2.64
2017-10-10T04:54:17.418Z,2.72
2017-10-10T04:55:27.414Z,2.72
2017-10-10T04:56:37.745Z,2.73
2017-10-10T04:57:48.071Z,2.82
2017-10-10T04:58:57.731Z,2.76
2017-10-10T05:00:07.730Z,2.77
2017-10-10T05:01:17.726Z,2.77
2017-10-10T05:02:28.069Z,2.76
2017-10-10T05:03:38.399Z,2.75
2017-10-10T05:04:48.394Z,2.79
2017-10-10T05:05:58.727Z,2.73
2017-10-10T05:07:08.727Z,2.76
2017-10-10T05:08:18.727Z,2.87
2017-10-10T05:09:28.725Z,2.88
2017-10-10T05:10:39.054Z,2.91
2017-10-10T05:11:48.726Z,2.83
2017-10-10T05:12:59.062Z,2.79
2017-10-10T05:14:09.411Z,2.82
2017-10-10T05:15:19.173Z,2.83
2017-10-10T05:16:28.499Z,2.76
2017-10-10T05:17:38.834Z,2.9
2017-10-10T05:18:48.850Z,2.87
2017-10-10T05:19:58.854Z,2.9
2017-10-10T05:21:08.869Z,2.85
2017-10-10T05:22:18.883Z,2.88
2017-10-10T05:23:28.881Z,2.77
2017-10-10T05:24:38.881Z,2.77
2017-10-10T05:25:48.881Z,2.76
2017-10-10T05:26:59.209Z,2.69
2017-10-10T05:28:09.552Z,2.68
2017-10-10T05:29:19.237Z,2.65
2017-10-10T05:30:29.230Z,2.61
2017-10-10T05:31:39.226Z,2.51
2017-10-10T05:32:49.565Z,2.58
2017-10-10T05:33:59.917Z,2.57
2017-10-10T05:35:09.933Z,2.57
2017-10-10T05:36:20.267Z,2.58
2017-10-10T05:37:29.939Z,2.68
2017-10-10T05:38:40.292Z,2.7
2017-10-10T05:39:50.622Z,2.59
2017-10-10T05:41:00.625Z,2.64
2017-10-10T05:42:10.660Z,2.68
2017-10-10T05:43:20.661Z,2.73
2017-10-10T05:44:30.957Z,2.77
2017-10-10T05:45:40.960Z,2.76
2017-10-10T05:46:50.628Z,2.9
2017-10-10T05:48:00.631Z,2.85
2017-10-10T05:49:10.629Z,2.88
2017-10-10T05:50:20.963Z,3
2017-10-10T05:51:31.289Z,3
2017-10-10T05:52:40.952Z,3.01
2017-10-10T05:53:50.963Z,2.94
2017-10-10T05:55:01.295Z,3.01
2017-10-10T05:56:10.636Z,2.95
2017-10-10T05:57:20.976Z,3.06
2017-10-10T05:58:30.980Z,2.98
2017-10-10T05:59:41.307Z,3
2017-10-10T06:00:51.639Z,3.03
2017-10-10T06:02:01.638Z,3
2017-10-10T06:03:11.647Z,3.03
2017-10-10T06:04:21.312Z,3.09
2017-10-10T06:05:31.653Z,3.16
2017-10-10T06:06:41.987Z,3.13
2017-10-10T06:07:51.996Z,3.12
2017-10-10T06:09:01.998Z,3.06
2017-10-10T06:10:12.329Z,3.09
2017-10-10T06:11:22.340Z,3.16
2017-10-10T06:12:31.672Z,3.15
2017-10-10T06:13:42.018Z,3.13
2017-10-10T06:14:52.035Z,3.24
2017-10-10T06:16:01.698Z,3.29
2017-10-10T06:17:12.034Z,3.3
2017-10-10T06:18:21.698Z,3.37
2017-10-10T06:19:32.041Z,3.3
2017-10-10T06:20:42.052Z,3.26
2017-10-10T06:21:51.726Z,3.34
2017-10-10T06:23:02.065Z,3.29
2017-10-10T06:24:11.730Z,3.36
2017-10-10T06:25:22.140Z,3.4
2017-10-10T06:26:32.149Z,3.33
2017-10-10T06:27:42.495Z,3.3
2017-10-10T06:28:52.155Z,3.24
2017-10-10T06:30:01.840Z,3.21
2017-10-10T06:31:12.334Z,3.19
2017-10-10T06:32:22.356Z,3.15
2017-10-10T06:33:32.366Z,3.16
2017-10-10T06:34:42.691Z,3.15
2017-10-10T06:35:52.346Z,3.19
2017-10-10T06:37:02.640Z,3.15
2017-10-10T06:38:12.970Z,3.06
2017-10-10T06:39:23.300Z,3.12
2017-10-10T06:40:33.619Z,3.12
2017-10-10T06:41:43.938Z,3.15
2017-10-10T06:42:53.596Z,3.18
2017-10-10T06:44:03.256Z,3.27
2017-10-10T06:45:13.588Z,3.21
2017-10-10T06:46:23.919Z,3.27
2017-10-10T06:47:34.247Z,3.33
2017-10-10T06:48:44.576Z,3.3
2017-10-10T06:49:54.235Z,3.33
2017-10-10T06:51:04.561Z,3.21
2017-10-10T06:52:14.554Z,3.22
2017-10-10T06:53:24.545Z,3.09
2017-10-10T06:54:34.539Z,3.24
2017-10-10T06:55:44.531Z,3.15
2017-10-10T06:56:53.856Z,3.13
2017-10-10T06:58:03.847Z,3.09
2017-10-10T06:59:13.855Z,3.09
2017-10-10T07:00:23.509Z,3.22
2017-10-10T07:01:33.835Z,3.3
2017-10-10T07:02:43.828Z,3.22
2017-10-10T07:03:54.150Z,3.26
2017-10-10T07:05:03.817Z,3.27
2017-10-10T07:06:14.147Z,3.37
2017-10-10T07:07:24.150Z,3.4
2017-10-10T07:08:34.476Z,3.31
2017-10-10T07:09:44.469Z,3.43
2017-10-10T07:10:54.477Z,3.37
2017-10-10T07:12:04.468Z,3.45
2017-10-10T07:13:14.459Z,3.31
2017-10-10T07:14:24.126Z,3.34
2017-10-10T07:15:33.495Z,3.46
2017-10-10T07:16:43.817Z,3.43
2017-10-10T07:17:54.142Z,3.46
2017-10-10T07:19:04.475Z,3.56
2017-10-10T07:20:14.130Z,3.56
2017-10-10T07:21:24.454Z,3.48
2017-10-10T07:22:34.549Z,3.49
2017-10-10T07:23:44.877Z,3.52
2017-10-10T07:24:54.881Z,3.52
2017-10-10T07:26:05.205Z,3.59
2017-10-10T07:27:15.198Z,3.68
2017-10-10T07:28:25.522Z,3.66
2017-10-10T07:29:35.512Z,3.82
2017-10-10T07:30:45.170Z,3.76
2017-10-10T07:31:54.838Z,3.76
2017-10-10T07:33:05.177Z,3.82
2017-10-10T07:34:15.501Z,3.84
2017-10-10T07:35:25.157Z,3.81
2017-10-10T07:36:35.482Z,3.77
2017-10-10T07:37:45.821Z,3.96
2017-10-10T07:38:55.812Z,3.94
2017-10-10T07:40:06.140Z,4
2017-10-10T07:41:15.804Z,4.03
2017-10-10T07:42:26.145Z,4.1
2017-10-10T07:43:35.799Z,4.18
2017-10-10T07:44:45.792Z,4.16
2017-10-10T07:45:56.133Z,4.12
2017-10-10T07:47:05.795Z,4.14
2017-10-10T07:48:16.128Z,4.04
2017-10-10T07:49:26.459Z,4.14
2017-10-10T07:50:36.785Z,4.09
2017-10-10T07:51:46.446Z,4.09
2017-10-10T07:52:56.772Z,4.1
2017-10-10T07:54:06.098Z,4.06
2017-10-10T07:55:16.433Z,4.09
2017-10-10T07:56:26.757Z,4.07
2017-10-10T07:57:37.080Z,4.03
2017-10-10T07:58:47.076Z,4.1
2017-10-10T07:59:57.401Z,4.07
2017-10-10T08:01:07.747Z,4.1
2017-10-10T08:02:18.068Z,4.09
2017-10-10T08:03:28.104Z,4.1
2017-10-10T08:04:38.110Z,4.06
2017-10-10T08:05:48.443Z,4.13
2017-10-10T08:06:58.769Z,4.14
2017-10-10T08:08:08.425Z,4.2
2017-10-10T08:09:18.755Z,4.2
2017-10-10T08:10:30.848Z,4.24
2017-10-10T08:11:41.175Z,4.31
2017-10-10T08:12:51.504Z,4.3
2017-10-10T08:14:01.496Z,4.3
2017-10-10T08:15:11.829Z,4.3
2017-10-10T08:16:21.821Z,4.4
2017-10-10T08:17:32.145Z,4.31
2017-10-10T08:18:42.482Z,4.4
2017-10-10T08:19:52.470Z,4.48
2017-10-10T08:21:02.472Z,4.48
2017-10-10T08:22:12.467Z,4.63
2017-10-10T08:23:22.459Z,4.46
2017-10-10T08:24:32.453Z,4.52
2017-10-10T08:25:42.781Z,4.49
2017-10-10T08:26:53.103Z,4.6
2017-10-10T08:28:03.096Z,4.52
2017-10-10T08:29:12.762Z,4.68
2017-10-10T08:30:23.100Z,4.61
2017-10-10T08:31:33.100Z,4.71
2017-10-10T08:32:43.095Z,4.7
2017-10-10T08:33:53.437Z,4.67
2017-10-10T08:35:03.096Z,4.76
2017-10-10T08:36:13.102Z,4.76
2017-10-10T08:37:23.429Z,4.78
2017-10-10T08:38:33.760Z,4.76
2017-10-10T08:39:43.754Z,4.83
2017-10-10T08:40:54.088Z,4.86
2017-10-10T08:42:04.089Z,4.89
2017-10-10T08:43:14.084Z,4.92
2017-10-10T08:44:24.414Z,4.97
2017-10-10T08:45:34.077Z,4.87
2017-10-10T08:46:44.412Z,5.01
2017-10-10T08:47:54.746Z,5.01
2017-10-10T08:49:04.763Z,4.98
2017-10-10T08:50:15.088Z,5.12
2017-10-10T08:51:25.092Z,5.2
2017-10-10T08:52:35.090Z,5.18
2017-10-10T08:53:45.428Z,5.12
2017-10-10T08:54:55.773Z,5.15
2017-10-10T08:56:06.102Z,5.22
2017-10-10T08:57:16.100Z,5.23
2017-10-10T08:58:25.762Z,5.36
2017-10-10T08:59:35.765Z,5.34
2017-10-10T09:00:46.092Z,5.44
2017-10-10T09:01:56.085Z,5.52
2017-10-10T09:03:06.408Z,5.59
2017-10-10T09:04:16.737Z,5.55
2017-10-10T09:05:27.061Z,5.61
2017-10-10T09:06:37.387Z,5.62
2017-10-10T09:07:47.714Z,5.62
2017-10-10T09:08:57.710Z,5.67
2017-10-10T09:10:07.366Z,5.65
2017-10-10T09:11:17.726Z,5.87
2017-10-10T09:12:27.723Z,5.87
2017-10-10T09:13:38.053Z,5.83
2017-10-10T09:14:50.049Z,5.97
2017-10-10T09:16:00.379Z,6.06
2017-10-10T09:17:10.704Z,6.06
2017-10-10T09:18:21.047Z,6.13
2017-10-10T09:19:31.045Z,6.13
2017-10-10T09:20:41.371Z,6.34
2017-10-10T09:21:51.363Z,6.5
2017-10-10T09:23:01.358Z,6.5
2017-10-10T09:24:11.357Z,6.64
2017-10-10T09:25:21.693Z,6.64
2017-10-10T09:26:32.019Z,6.67
2017-10-10T09:27:41.679Z,6.71
2017-10-10T09:28:51.338Z,6.72
2017-10-10T09:30:00.662Z,6.78
2017-10-10T09:31:10.324Z,6.8
2017-10-10T09:32:20.319Z,6.8
2017-10-10T09:33:29.986Z,6.8
2017-10-10T09:34:39.978Z,6.77
2017-10-10T09:35:50.305Z,6.74
2017-10-10T09:37:00.635Z,6.93
2017-10-10T09:38:10.303Z,6.9
2017-10-10T09:39:19.632Z,7.08
2017-10-10T09:40:29.625Z,7.04
2017-10-10T09:41:39.953Z,7.07
2017-10-10T09:42:50.289Z,7.04
2017-10-10T09:44:02.620Z,7.18
2017-10-10T09:45:12.956Z,7.19
2017-10-10T09:46:23.285Z,7.14
2017-10-10T09:47:33.614Z,7.15
2017-10-10T09:48:43.939Z,7.13
2017-10-10T09:49:54.265Z,7.28
2017-10-10T09:51:04.591Z,7.31
2017-10-10T09:52:14.589Z,7.39
2017-10-10T09:53:24.926Z,7.39
2017-10-10T09:54:34.587Z,7.44
2017-10-10T09:55:44.588Z,7.33
2017-10-10T09:56:54.911Z,7.33
2017-10-10T09:58:05.266Z,7.26
2017-10-10T09:59:15.595Z,7.28
2017-10-10T10:00:25.969Z,7.18
2017-10-10T10:01:35.963Z,7.29
2017-10-10T10:02:45.960Z,7.36
2017-10-10T10:03:56.300Z,7.61
2017-10-10T10:05:06.641Z,7.64
2017-10-10T10:06:16.974Z,7.75
2017-10-10T10:07:27.303Z,7.74
2017-10-10T10:08:37.636Z,7.7
2017-10-10T10:09:47.632Z,7.78
2017-10-10T10:10:57.627Z,7.72
2017-10-10T10:12:07.286Z,7.61
2017-10-10T10:13:17.729Z,7.69
2017-10-10T10:14:27.726Z,7.69
2017-10-10T10:15:38.050Z,7.83
2017-10-10T10:16:48.044Z,7.91
2017-10-10T10:17:58.052Z,7.91
2017-10-10T10:19:07.729Z,8.02
2017-10-10T10:20:17.734Z,8.06
2017-10-10T10:21:27.056Z,7.88
2017-10-10T10:22:37.389Z,7.66
2017-10-10T10:23:47.723Z,7.67
2017-10-10T10:24:57.720Z,7.61
2017-10-10T10:26:08.054Z,7.56
2017-10-10T10:27:18.058Z,7.58
2017-10-10T10:28:27.382Z,7.59
2017-10-10T10:29:37.381Z,7.61
2017-10-10T10:30:47.377Z,7.58
2017-10-10T10:31:57.380Z,7.67
2017-10-10T10:33:07.712Z,7.69
2017-10-10T10:34:17.723Z,7.8
2017-10-10T10:35:27.715Z,7.77
2017-10-10T10:36:38.044Z,7.93
2017-10-10T10:37:48.380Z,7.95
2017-10-10T10:38:58.371Z,8.11
2017-10-10T10:40:08.365Z,7.99
2017-10-10T10:41:18.702Z,7.9
2017-10-10T10:42:28.697Z,7.85
2017-10-10T10:43:38.699Z,7.95
2017-10-10T10:44:48.705Z,8.01
2017-10-10T10:45:59.040Z,8.02
2017-10-10T10:47:08.700Z,7.98
2017-10-10T10:48:18.368Z,8.01
2017-10-10T10:49:28.029Z,8.03
2017-10-10T10:50:37.692Z,7.87
2017-10-10T10:51:48.025Z,7.99
2017-10-10T10:52:58.021Z,7.93
2017-10-10T10:54:08.036Z,8.01
2017-10-10T10:55:18.383Z,8.06
2017-10-10T10:56:28.382Z,8.01
2017-10-10T10:57:38.387Z,7.95
2017-10-10T10:58:48.057Z,7.83
2017-10-10T10:59:58.050Z,7.77
2017-10-10T11:01:08.046Z,7.74
2017-10-10T11:02:17.707Z,7.81
2017-10-10T11:03:28.049Z,7.64
2017-10-10T11:04:38.049Z,7.77
2017-10-10T11:05:48.381Z,7.78
2017-10-10T11:06:58.708Z,7.83
2017-10-10T11:08:09.043Z,7.7
2017-10-10T11:09:19.040Z,7.46
2017-10-10T11:10:28.704Z,7.41
2017-10-10T11:11:38.704Z,7.36
2017-10-10T11:12:48.710Z,7.15
2017-10-10T11:13:58.701Z,7.1
2017-10-10T11:15:09.054Z,7.19
2017-10-10T11:16:19.047Z,7.23
2017-10-10T11:17:28.718Z,7.32
2017-10-10T11:18:38.714Z,7.36
2017-10-10T11:19:48.710Z,7.41
2017-10-10T11:20:59.042Z,7.43
2017-10-10T11:22:09.046Z,7.37
2017-10-10T11:23:19.393Z,7.44
2017-10-10T11:24:29.397Z,7.5
2017-10-10T11:25:39.734Z,7.62
2017-10-10T11:26:50.063Z,7.5
2017-10-10T11:28:00.393Z,7.28
2017-10-10T11:29:09.720Z,7.29
2017-10-10T11:30:19.715Z,7.28
2017-10-10T11:31:30.049Z,7.32
2017-10-10T11:32:40.385Z,7.44
2017-10-10T11:33:50.715Z,7.55
2017-10-10T11:35:01.041Z,7.46
2017-10-10T11:36:11.400Z,7.64
2017-10-10T11:37:21.395Z,7.74
2017-10-10T11:38:30.724Z,7.61
2017-10-10T11:39:40.720Z,7.69
2017-10-10T11:40:51.061Z,7.72
2017-10-10T11:42:01.387Z,7.88
2017-10-10T11:43:11.384Z,8.03
2017-10-10T11:44:21.391Z,8.18
2017-10-10T11:45:30.725Z,8.23
2017-10-10T11:46:41.052Z,8.42
2017-10-10T11:47:51.048Z,8.53
2017-10-10T11:49:01.052Z,8.71
2017-10-10T11:50:11.379Z,8.81
2017-10-10T11:51:21.725Z,8.9
2017-10-10T11:52:31.724Z,9.05
2017-10-10T11:53:41.052Z,9.15
2017-10-10T11:54:51.049Z,9.24
2017-10-10T11:56:01.378Z,9.37
2017-10-10T11:57:11.705Z,9.44
2017-10-10T11:58:22.059Z,9.48
2017-10-10T11:59:32.073Z,9.62
2017-10-10T12:00:42.069Z,9.64
2017-10-10T12:01:51.740Z,9.76
2017-10-10T12:03:02.075Z,9.81
2017-10-10T12:04:11.737Z,9.9
2017-10-10T12:05:22.067Z,9.92
2017-10-10T12:06:31.395Z,9.95
2017-10-10T12:07:41.746Z,9.94
2017-10-10T12:08:51.756Z,10.07
2017-10-10T12:10:01.856Z,10
2017-10-10T12:11:11.855Z,10.07
2017-10-10T12:12:22.183Z,9.97
2017-10-10T12:13:32.183Z,10.07
2017-10-10T12:14:42.185Z,10.17
2017-10-10T12:15:52.186Z,10.12
2017-10-10T12:17:02.182Z,10.15
2017-10-10T12:18:12.203Z,10.18
2017-10-10T12:19:22.535Z,10.12
2017-10-10T12:20:32.530Z,10.17
2017-10-10T12:21:42.531Z,10.21
2017-10-10T12:22:52.530Z,10.23
2017-10-10T12:24:02.537Z,10.24
2017-10-10T12:25:12.198Z,10.36
2017-10-10T12:26:22.582Z,10.48
2017-10-10T12:27:33.266Z,10.53
2017-10-10T12:28:43.603Z,10.72
2017-10-10T12:29:53.267Z,11.33
2017-10-10T12:31:03.272Z,11.58
2017-10-10T12:32:12.598Z,11.83
2017-10-10T12:33:22.618Z,12.12
2017-10-10T12:34:32.285Z,12.23
2017-10-10T12:35:42.290Z,12.39
2017-10-10T12:36:52.620Z,12.44
2017-10-10T12:38:02.621Z,12.48
2017-10-10T12:39:12.960Z,12.84
2017-10-10T12:40:23.305Z,13.26
2017-10-10T12:41:33.308Z,13.49
2017-10-10T12:42:43.305Z,13.76
2017-10-10T12:43:53.646Z,13.98
2017-10-10T12:45:03.976Z,13.82
2017-10-10T12:46:13.981Z,13.75
2017-10-10T12:47:23.982Z,13.57
2017-10-10T12:48:33.993Z,13.3
2017-10-10T12:49:43.994Z,13.27
2017-10-10T12:50:54.396Z,13.08
2017-10-10T12:52:04.397Z,12.94
2017-10-10T12:53:14.397Z,12.76
2017-10-10T12:54:24.734Z,12.58
2017-10-10T12:55:34.397Z,12.48
2017-10-10T12:56:44.101Z,12.5
2017-10-10T12:57:54.466Z,12.2
2017-10-10T12:59:04.484Z,11.77
2017-10-10T13:00:14.837Z,11.68
2017-10-10T13:01:25.183Z,11.58
2017-10-10T13:02:34.846Z,11.73
2017-10-10T13:03:45.187Z,11.49
2017-10-10T13:04:55.528Z,11.48
2017-10-10T13:06:05.189Z,11.45
2017-10-10T13:07:15.196Z,11.26
2017-10-10T13:08:25.194Z,11.05
2017-10-10T13:09:35.558Z,11.04
2017-10-10T13:10:45.566Z,11.01
2017-10-10T13:11:55.564Z,10.82
2017-10-10T13:13:04.889Z,10.8
2017-10-10T13:14:14.892Z,10.76
2017-10-10T13:15:24.893Z,10.68
2017-10-10T13:16:34.906Z,10.59
2017-10-10T13:17:45.241Z,10.53
2017-10-10T13:18:55.581Z,10.42
2017-10-10T13:20:05.930Z,10.43
2017-10-10T13:21:16.269Z,10.24
2017-10-10T13:22:26.262Z,10.18
2017-10-10T13:23:35.927Z,10.15
2017-10-10T13:24:45.253Z,9.95
2017-10-10T13:25:55.583Z,10
2017-10-10T13:27:05.910Z,9.9
2017-10-10T13:28:15.910Z,9.8
2017-10-10T13:29:25.905Z,9.84
2017-10-10T13:30:36.238Z,9.64
2017-10-10T13:31:45.907Z,9.59
2017-10-10T13:32:55.913Z,9.51
2017-10-10T13:34:05.915Z,9.54
2017-10-10T13:35:16.250Z,9.51
2017-10-10T13:36:26.584Z,9.49
2017-10-10T13:37:36.577Z,9.47
2017-10-10T13:38:46.909Z,9.42
2017-10-10T13:39:56.905Z,9.42
2017-10-10T13:41:06.234Z,9.39
2017-10-10T13:42:16.236Z,9.27
2017-10-10T13:43:28.388Z,9.26
2017-10-10T13:44:38.739Z,9.22
2017-10-10T13:45:49.063Z,9.26
2017-10-10T13:46:58.728Z,9.15
2017-10-10T13:48:07.722Z,9.08
2017-10-10T13:49:17.726Z,9.05
2017-10-10T13:50:27.740Z,8.93
2017-10-10T13:51:37.751Z,9.02
2017-10-10T13:52:47.752Z,8.96
2017-10-10T13:53:57.457Z,8.79
2017-10-10T13:55:07.451Z,8.87
2017-10-10T13:56:17.446Z,8.79
2017-10-10T13:57:27.774Z,8.78
2017-10-10T13:58:37.442Z,8.75
2017-10-10T13:59:47.771Z,8.72
2017-10-10T14:00:58.105Z,8.74
2017-10-10T14:02:08.446Z,8.63
2017-10-10T14:03:18.774Z,8.66
2017-10-10T14:04:29.104Z,8.57
2017-10-10T14:05:39.102Z,8.53
2017-10-10T14:06:49.428Z,8.59
2017-10-10T14:07:59.763Z,8.45
2017-10-10T14:09:09.761Z,8.53
2017-10-10T14:10:19.091Z,8.42
2017-10-10T14:11:29.422Z,8.46
2017-10-10T14:12:39.414Z,8.36
2017-10-10T14:13:49.416Z,8.36
2017-10-10T14:14:59.413Z,8.35
2017-10-10T14:16:09.751Z,8.42
2017-10-10T14:17:20.088Z,8.27
2017-10-10T14:18:29.414Z,8.35
2017-10-10T14:19:39.409Z,8.36
2017-10-10T14:20:49.738Z,8.42
2017-10-10T14:22:00.082Z,8.27
2017-10-10T14:23:10.077Z,8.34
2017-10-10T14:24:20.437Z,8.38
2017-10-10T14:25:30.786Z,8.32
2017-10-10T14:26:40.787Z,8.38
2017-10-10T14:27:51.120Z,8.36
2017-10-10T14:29:00.777Z,8.34
2017-10-10T14:30:11.120Z,8.28
2017-10-10T14:31:21.121Z,8.35
2017-10-10T14:32:30.785Z,8.36
2017-10-10T14:33:41.111Z,8.23
2017-10-10T14:34:51.445Z,8.35
2017-10-10T14:36:01.103Z,8.31
2017-10-10T14:37:10.761Z,8.31
2017-10-10T14:38:21.091Z,8.26
2017-10-10T14:39:31.427Z,8.31
2017-10-10T14:40:41.431Z,8.28
2017-10-10T14:41:51.774Z,8.32
2017-10-10T14:43:02.124Z,8.28
2017-10-10T14:44:12.461Z,8.27
2017-10-10T14:45:21.794Z,8.28
2017-10-10T14:46:31.812Z,8.23
2017-10-10T14:47:41.817Z,8.23
2017-10-10T14:48:52.178Z,8.24
2017-10-10T14:50:02.511Z,8.21
2017-10-10T14:51:12.844Z,8.31
2017-10-10T14:52:23.175Z,8.18
2017-10-10T14:53:33.521Z,8.21
2017-10-10T14:54:43.873Z,8.23
2017-10-10T14:55:54.207Z,8.18
2017-10-10T14:57:04.541Z,8.18
2017-10-10T14:58:14.867Z,8.2
2017-10-10T14:59:25.195Z,8.2
2017-10-10T15:00:35.202Z,8.14
2017-10-10T15:01:45.554Z,8.17
2017-10-10T15:02:55.563Z,8.05
2017-10-10T15:04:05.227Z,8.14
2017-10-10T15:05:15.270Z,8.08
2017-10-10T15:06:25.599Z,8.02
2017-10-10T15:07:35.926Z,8.01
2017-10-10T15:08:45.926Z,7.96
2017-10-10T15:09:56.261Z,7.96
2017-10-10T15:11:05.924Z,7.95
2017-10-10T15:12:16.260Z,7.9
2017-10-10T15:13:26.264Z,7.9
2017-10-10T15:14:36.598Z,7.85
2017-10-10T15:15:46.592Z,7.85
2017-10-10T15:16:56.580Z,7.8
2017-10-10T15:18:05.906Z,7.74
2017-10-10T15:19:15.901Z,7.78
2017-10-10T15:20:25.890Z,7.75
2017-10-10T15:21:36.229Z,7.77
2017-10-10T15:22:45.890Z,7.72
2017-10-10T15:23:56.232Z,7.75
2017-10-10T15:25:06.564Z,7.61
2017-10-10T15:26:16.566Z,7.55
2017-10-10T15:27:26.232Z,7.61
2017-10-10T15:28:36.247Z,7.59
2017-10-10T15:29:46.590Z,7.61
2017-10-10T15:30:56.584Z,7.58
2017-10-10T15:32:06.916Z,7.53
2017-10-10T15:33:17.252Z,7.58
2017-10-10T15:34:26.914Z,7.59